Time;durP1;ratioP1;P1;durP2;ratioP2;P2;SDS_P1;SDS_P2;PMS_P1;PMS_P2;Temp;Humidity;BMP_temperature;BMP_pressure;BME280_temperature;BME280_humidity;BME280_pressure;Samples;Min_cycle;Max_cycle;Signal;HPM_P1;HPM_P2
2022/08/06 00:01:57;;;;;;;2.13;0.70;;;18.00;95.20;;;;;;4064698;29;20021;-66
2022/08/06 00:03:58;;;;;;;1.15;0.50;;;18.00;95.20;;;;;;4065957;29;20036;-66
2022/08/06 00:05:58;;;;;;;1.10;0.50;;;18.00;95.60;;;;;;4065450;29;20103;-66
2022/08/06 00:07:59;;;;;;;2.70;0.70;;;17.90;97.10;;;;;;4065325;29;20033;-66
2022/08/06 00:10:00;;;;;;;1.73;0.63;;;17.90;96.20;;;;;;4065345;29;20434;-65
2022/08/06 00:12:01;;;;;;;2.58;0.70;;;17.90;96.50;;;;;;4047549;29;20146;-66
2022/08/06 00:14:02;;;;;;;3.17;0.80;;;17.90;97.80;;;;;;4065812;29;20039;-66
2022/08/06 00:16:03;;;;;;;6.82;0.90;;;17.80;97.00;;;;;;4064768;29;20123;-66
2022/08/06 00:18:04;;;;;;;2.28;0.70;;;17.80;96.90;;;;;;4065728;29;20032;-66
2022/08/06 00:20:06;;;;;;;1.83;0.68;;;17.80;97.10;;;;;;4064889;29;20042;-66
2022/08/06 00:22:06;;;;;;;0.63;0.57;;;17.70;97.40;;;;;;4064067;29;20044;-67
2022/08/06 00:24:07;;;;;;;2.00;0.65;;;17.70;97.20;;;;;;4064856;29;20063;-67
2022/08/06 00:26:08;;;;;;;0.55;0.50;;;17.70;96.80;;;;;;4065010;29;20044;-66
2022/08/06 00:28:08;;;;;;;3.47;0.63;;;17.70;96.80;;;;;;4065587;29;20036;-66
2022/08/06 00:30:10;;;;;;;2.20;0.70;;;17.60;96.30;;;;;;4064564;29;20047;-66
2022/08/06 00:32:10;;;;;;;1.75;0.63;;;17.60;95.90;;;;;;4064521;29;20435;-66
2022/08/06 00:34:11;;;;;;;0.73;0.50;;;17.60;96.20;;;;;;4065214;29;20055;-66
2022/08/06 00:36:12;;;;;;;1.77;0.70;;;17.60;96.00;;;;;;4064661;29;20032;-66
2022/08/06 00:38:13;;;;;;;1.10;0.73;;;17.50;95.90;;;;;;4064410;29;20043;-66
2022/08/06 00:40:15;;;;;;;2.30;0.70;;;17.50;95.60;;;;;;4063831;29;20056;-66
2022/08/06 00:42:16;;;;;;;2.50;1.00;;;17.50;95.60;;;;;;4064618;29;20071;-66
2022/08/06 00:44:17;;;;;;;0.88;0.60;;;17.50;95.60;;;;;;4064930;29;20028;-66
2022/08/06 00:46:17;;;;;;;1.58;0.80;;;17.40;95.70;;;;;;4064707;29;20032;-65
2022/08/06 00:48:18;;;;;;;1.02;0.45;;;17.50;95.50;;;;;;4065245;29;20024;-66
2022/08/06 00:50:19;;;;;;;0.85;0.50;;;17.40;95.40;;;;;;4063948;29;20048;-66
2022/08/06 00:52:19;;;;;;;1.20;0.82;;;17.40;95.50;;;;;;4063884;29;20526;-66
2022/08/06 00:54:20;;;;;;;0.77;0.63;;;17.40;95.40;;;;;;4064699;29;20099;-66
2022/08/06 00:56:21;;;;;;;1.20;0.55;;;17.30;95.40;;;;;;4064467;29;20043;-66
2022/08/06 00:58:22;;;;;;;1.15;0.50;;;17.40;95.60;;;;;;4065068;29;20474;-66
2022/08/06 01:00:22;;;;;;;1.55;0.80;;;17.30;95.50;;;;;;4064075;29;20036;-66
2022/08/06 01:02:23;;;;;;;1.20;0.70;;;17.30;95.20;;;;;;4063313;29;20048;-65
2022/08/06 01:04:23;;;;;;;4.25;0.73;;;17.30;95.40;;;;;;4064956;29;20414;-66
2022/08/06 01:06:24;;;;;;;1.98;0.60;;;17.20;95.10;;;;;;4064374;29;20047;-66
2022/08/06 01:08:24;;;;;;;1.02;0.65;;;17.20;95.80;;;;;;4065025;29;20071;-66
2022/08/06 01:10:25;;;;;;;1.48;0.80;;;17.20;96.50;;;;;;4063370;29;20036;-65
2022/08/06 01:12:27;;;;;;;1.33;0.60;;;17.20;96.70;;;;;;4064284;29;20032;-66
2022/08/06 01:14:27;;;;;;;1.42;0.65;;;17.10;97.40;;;;;;4064946;29;20111;-66
2022/08/06 01:16:38;;;;;;;2.65;0.70;;;17.10;98.10;;;;;;4064477;29;20036;-65
2022/08/06 01:18:50;;;;;;;3.42;0.65;;;17.10;98.40;;;;;;4060766;29;20032;-65
2022/08/06 01:21:01;;;;;;;1.20;0.50;;;17.10;98.10;;;;;;4062594;29;20048;-65
2022/08/06 01:23:32;;;;;;;1.85;0.73;;;17.00;97.50;;;;;;4064388;29;20044;-66
2022/08/06 01:26:18;;;;;;;3.15;0.60;;;17.10;96.40;;;;;;4063578;29;20103;-66
2022/08/06 01:29:10;;;;;;;2.20;0.90;;;17.00;96.40;;;;;;4063106;29;20032;-66
2022/08/06 01:31:17;;;;;;;1.15;0.70;;;17.00;96.50;;;;;;4060082;29;20099;-65
2022/08/06 01:33:27;;;;;;;2.88;0.70;;;17.00;96.10;;;;;;4064189;29;20498;-66
2022/08/06 01:35:33;;;;;;;3.38;0.77;;;16.90;95.90;;;;;;4046992;29;20044;-66
2022/08/06 01:37:52;;;;;;;3.65;0.93;;;16.90;96.30;;;;;;4064516;29;20482;-66
2022/08/06 01:39:58;;;;;;;0.95;0.45;;;16.90;95.90;;;;;;4063645;29;20029;-65
2022/08/06 01:42:01;;;;;;;0.90;0.73;;;16.90;96.00;;;;;;4063087;29;20547;-65
2022/08/06 01:44:05;;;;;;;2.05;0.80;;;16.90;96.10;;;;;;4047980;29;20047;-65
2022/08/06 01:46:07;;;;;;;3.30;0.80;;;16.90;96.60;;;;;;4063536;29;20059;-66
2022/08/06 01:48:13;;;;;;;2.17;0.75;;;16.80;96.70;;;;;;4064130;29;20036;-65
2022/08/06 01:50:14;;;;;;;2.25;0.70;;;16.80;96.50;;;;;;4062807;29;20387;-66
2022/08/06 01:52:17;;;;;;;0.90;0.60;;;16.80;96.50;;;;;;4063779;29;20039;-65
2022/08/06 01:54:20;;;;;;;2.00;0.90;;;16.80;96.90;;;;;;4063834;29;20064;-66
2022/08/06 01:56:22;;;;;;;1.17;0.60;;;16.70;96.70;;;;;;4063985;29;20403;-65
2022/08/06 01:58:27;;;;;;;1.90;0.80;;;16.70;97.30;;;;;;4064648;29;20043;-65
2022/08/06 02:00:29;;;;;;;1.05;0.57;;;16.70;97.20;;;;;;4063199;29;20119;-65
2022/08/06 02:02:31;;;;;;;1.40;0.65;;;16.60;97.60;;;;;;4063822;29;20044;-65
2022/08/06 02:04:39;;;;;;;1.57;0.70;;;16.60;97.80;;;;;;4064377;29;20480;-65
2022/08/06 02:06:44;;;;;;;1.67;0.80;;;16.60;97.70;;;;;;4063368;29;20036;-66
2022/08/06 02:08:47;;;;;;;2.35;0.68;;;16.60;97.30;;;;;;4063880;29;20092;-66
2022/08/06 02:10:49;;;;;;;2.63;0.75;;;16.60;97.00;;;;;;4063247;29;20063;-66
2022/08/06 02:12:50;;;;;;;;;;;16.60;96.90;;;;;;4063938;29;20040;-66
2022/08/06 02:15:02;;;;;;;1.85;0.63;;;16.60;96.50;;;;;;4064406;29;19918;-65
2022/08/06 02:17:04;;;;;;;1.73;0.95;;;16.60;96.30;;;;;;4063887;29;20028;-65
2022/08/06 02:19:07;;;;;;;1.38;1.00;;;16.60;96.10;;;;;;4063273;29;20036;-65
2022/08/06 02:21:12;;;;;;;1.38;0.57;;;16.60;96.30;;;;;;4063472;29;20377;-66
2022/08/06 02:23:19;;;;;;;1.10;0.73;;;16.60;96.90;;;;;;4063810;29;20028;-65
2022/08/06 02:25:20;;;;;;;2.33;1.15;;;16.50;97.50;;;;;;4063528;29;20033;-65
2022/08/06 02:27:23;;;;;;;1.92;0.95;;;16.50;97.60;;;;;;4064102;29;20056;-65
2022/08/06 02:32:21;;;;;;;2.53;0.73;;;16.50;97.00;;;;;;4054734;29;20033;-66
2022/08/06 02:34:22;;;;;;;0.93;0.70;;;16.50;96.60;;;;;;4048207;29;20185;-66
2022/08/06 02:36:32;;;;;;;2.58;1.00;;;16.50;96.80;;;;;;4047778;29;20033;-65
2022/08/06 02:38:46;;;;;;;2.17;0.77;;;16.50;97.10;;;;;;4048275;29;20040;-65
2022/08/06 02:40:52;;;;;;;4.03;0.80;;;16.50;96.70;;;;;;4047466;29;20507;-66
2022/08/06 02:43:06;;;;;;;1.80;1.00;;;16.50;96.70;;;;;;4047421;29;20467;-66
2022/08/06 02:45:10;;;;;;;1.23;0.73;;;16.50;97.30;;;;;;4066949;29;20040;-66
2022/08/06 02:47:25;;;;;;;1.52;0.50;;;16.40;97.30;;;;;;4063717;29;20024;-66
2022/08/06 02:49:27;;;;;;;0.80;0.68;;;16.40;98.00;;;;;;4050039;29;20044;-66
2022/08/06 02:51:42;;;;;;;0.50;0.50;;;16.40;97.00;;;;;;4045995;29;20057;-66
2022/08/06 02:54:02;;;;;;;0.82;0.50;;;16.40;97.10;;;;;;4047868;29;20044;-66
2022/08/06 02:56:10;;;;;;;1.05;0.65;;;16.40;96.60;;;;;;4047621;29;20037;-65
2022/08/06 02:58:19;;;;;;;1.65;0.73;;;16.30;96.50;;;;;;4048606;29;20076;-65
2022/08/06 03:00:21;;;;;;;1.95;0.85;;;16.30;96.30;;;;;;4061962;29;20092;-66
2022/08/06 03:02:25;;;;;;;2.60;0.90;;;16.30;96.50;;;;;;4050305;29;20037;-66
2022/08/06 03:04:28;;;;;;;2.20;0.90;;;16.30;96.40;;;;;;4051314;29;20044;-66
2022/08/06 03:06:32;;;;;;;1.05;0.80;;;16.30;96.40;;;;;;4052775;29;20548;-66
2022/08/06 03:08:35;;;;;;;0.95;0.45;;;16.30;96.20;;;;;;4065832;29;20050;-65
2022/08/06 03:10:36;;;;;;;;;;;16.30;96.40;;;;;;4065213;29;20389;-65
2022/08/06 03:12:38;;;;;;;2.15;0.80;;;16.20;97.00;;;;;;4065836;29;19919;-66
2022/08/06 03:14:40;;;;;;;2.60;1.30;;;16.20;97.30;;;;;;4066450;29;20059;-65
2022/08/06 03:16:41;;;;;;;2.15;1.00;;;16.20;97.90;;;;;;4065668;29;20036;-65
2022/08/06 03:18:43;;;;;;;1.35;0.70;;;16.20;98.20;;;;;;4065552;29;20115;-65
2022/08/06 03:20:44;;;;;;;2.10;0.88;;;16.20;97.80;;;;;;4065266;29;20407;-65
2022/08/06 03:22:48;;;;;;;1.88;0.70;;;16.20;97.10;;;;;;4065474;29;20032;-65
2022/08/06 03:24:50;;;;;;;1.15;0.70;;;16.20;97.40;;;;;;4066122;29;20554;-66
2022/08/06 03:26:52;;;;;;;2.95;0.93;;;16.20;97.30;;;;;;4065494;29;20044;-66
2022/08/06 03:28:55;;;;;;;0.47;0.45;;;16.10;96.80;;;;;;4079928;29;20514;-63
2022/08/06 03:30:56;;;;;;;1.00;0.82;;;16.10;97.00;;;;;;4065256;29;20036;-64
2022/08/06 03:32:59;;;;;;;1.63;0.90;;;16.10;96.70;;;;;;4065725;29;20044;-63
2022/08/06 03:35:02;;;;;;;1.73;0.70;;;16.00;96.70;;;;;;4066191;29;20502;-63
2022/08/06 03:37:05;;;;;;;1.00;0.80;;;16.00;97.00;;;;;;4065272;29;20039;-63
2022/08/06 03:39:08;;;;;;;0.80;0.65;;;16.00;97.30;;;;;;4065104;29;20047;-63
2022/08/06 03:41:10;;;;;;;0.95;0.68;;;15.90;97.10;;;;;;4064758;29;20039;-63
2022/08/06 03:43:11;;;;;;;5.03;1.10;;;15.90;97.60;;;;;;4065763;29;20399;-63
2022/08/06 03:45:11;;;;;;;2.58;0.80;;;15.90;98.30;;;;;;4065152;29;20293;-64
2022/08/06 03:47:24;;;;;;;2.28;0.85;;;15.90;97.90;;;;;;4065854;29;20040;-63
2022/08/06 03:49:45;;;;;;;1.42;0.70;;;15.80;97.10;;;;;;4064860;29;20116;-63
2022/08/06 03:51:48;;;;;;;1.38;0.70;;;15.70;97.20;;;;;;4060501;29;20558;-63
2022/08/06 03:53:51;;;;;;;2.63;0.90;;;15.70;97.90;;;;;;4065519;29;20036;-63
2022/08/06 03:55:57;;;;;;;1.15;0.80;;;15.70;98.10;;;;;;4065188;29;20550;-63
2022/08/06 03:58:02;;;;;;;2.88;1.00;;;15.60;98.70;;;;;;4065817;29;20039;-63
2022/08/06 04:00:04;;;;;;;2.13;1.00;;;15.60;99.20;;;;;;4065205;29;20386;-65
2022/08/06 04:02:06;;;;;;;1.80;0.97;;;15.60;98.50;;;;;;4063864;29;20074;-63
2022/08/06 04:04:08;;;;;;;1.52;0.98;;;15.60;99.00;;;;;;4066283;29;20119;-63
2022/08/06 04:06:11;;;;;;;1.40;0.88;;;15.60;99.50;;;;;;4065684;29;20412;-63
2022/08/06 04:08:12;;;;;;;0.77;0.77;;;15.60;99.40;;;;;;4066200;29;20040;-63
2022/08/06 04:10:15;;;;;;;2.80;1.10;;;15.60;99.00;;;;;;4065329;29;20055;-63
2022/08/06 04:12:17;;;;;;;1.60;0.90;;;15.60;98.50;;;;;;4061821;29;20484;-63
2022/08/06 04:14:17;;;;;;;2.80;0.77;;;15.60;98.50;;;;;;4063818;29;20087;-63
2022/08/06 04:16:18;;;;;;;1.45;0.93;;;15.70;98.50;;;;;;4067367;29;20569;-63
2022/08/06 04:18:26;;;;;;;2.80;0.90;;;15.60;98.00;;;;;;4065211;29;20388;-64
2022/08/06 04:20:31;;;;;;;1.67;0.93;;;15.60;97.90;;;;;;4064023;29;20047;-63
2022/08/06 04:22:32;;;;;;;3.63;0.80;;;15.70;97.80;;;;;;4064713;29;20450;-63
2022/08/06 04:24:33;;;;;;;1.35;0.98;;;15.70;97.60;;;;;;4068300;29;20059;-63
2022/08/06 04:26:34;;;;;;;1.50;1.10;;;15.60;97.90;;;;;;4065213;29;20036;-63
2022/08/06 04:28:38;;;;;;;1.85;1.17;;;15.60;98.30;;;;;;4065830;29;20052;-63
2022/08/06 04:30:40;;;;;;;1.67;0.68;;;15.60;98.50;;;;;;4063693;29;24447;-63
2022/08/06 04:32:43;;;;;;;1.48;0.75;;;15.60;98.30;;;;;;4070578;29;20098;-63
2022/08/06 04:34:45;;;;;;;2.22;1.13;;;15.60;98.20;;;;;;4065296;29;20048;-63
2022/08/06 04:36:46;;;;;;;3.58;1.25;;;15.50;98.20;;;;;;4068216;29;20036;-64
2022/08/06 04:38:47;;;;;;;3.15;1.17;;;15.50;98.40;;;;;;4064468;29;20066;-63
2022/08/06 04:40:49;;;;;;;1.48;1.00;;;15.50;98.60;;;;;;4063671;29;20032;-63
2022/08/06 04:42:50;;;;;;;4.53;1.47;;;15.60;98.80;;;;;;4060176;29;20040;-63
2022/08/06 04:44:52;;;;;;;2.40;1.00;;;15.60;98.60;;;;;;4063599;29;20087;-63
2022/08/06 04:46:53;;;;;;;1.33;0.80;;;15.60;99.20;;;;;;4047132;29;20043;-63
2022/08/06 04:48:54;;;;;;;1.23;0.90;;;15.60;99.00;;;;;;4064109;29;20043;-63
2022/08/06 04:50:55;;;;;;;0.98;0.88;;;15.60;98.90;;;;;;4064768;29;20048;-63
2022/08/06 04:53:08;;;;;;;4.57;1.00;;;15.60;98.70;;;;;;4066169;29;20040;-63
2022/08/06 04:55:09;;;;;;;2.83;1.02;;;15.60;98.70;;;;;;4069139;29;20396;-63
2022/08/06 04:57:09;;;;;;;2.83;1.10;;;15.60;99.40;;;;;;4068415;29;20046;-63
2022/08/06 04:59:10;;;;;;;2.00;0.95;;;15.60;99.90;;;;;;4069840;29;20123;-63
2022/08/06 05:01:11;;;;;;;2.30;1.20;;;15.60;99.90;;;;;;4068752;29;20118;-63
2022/08/06 05:03:12;;;;;;;2.95;1.50;;;15.60;99.90;;;;;;4070624;29;20035;-63
2022/08/06 05:05:15;;;;;;;3.53;1.30;;;15.60;99.90;;;;;;4071595;29;20039;-65
2022/08/06 05:07:23;;;;;;;1.83;1.00;;;15.60;99.90;;;;;;4070162;29;20462;-63
2022/08/06 05:09:28;;;;;;;2.65;1.00;;;15.70;99.90;;;;;;4068583;29;20051;-64
2022/08/06 05:11:35;;;;;;;3.38;1.52;;;15.60;99.90;;;;;;4065986;29;20039;-63
2022/08/06 05:13:39;;;;;;;2.80;1.30;;;15.70;99.90;;;;;;4069481;29;20040;-65
2022/08/06 05:15:43;;;;;;;3.47;1.60;;;15.70;99.90;;;;;;4068290;29;20411;-65
2022/08/06 05:17:54;;;;;;;3.58;1.50;;;15.70;99.90;;;;;;4067599;29;20028;-66
2022/08/06 05:20:16;;;;;;;2.30;1.40;;;15.80;99.90;;;;;;4068753;29;20487;-65
2022/08/06 05:22:19;;;;;;;3.67;1.63;;;15.80;99.90;;;;;;4068165;29;20882;-66
2022/08/06 05:24:20;;;;;;;3.50;1.38;;;15.80;99.90;;;;;;4065517;29;20036;-65
2022/08/06 05:26:22;;;;;;;2.42;1.38;;;15.90;99.90;;;;;;4049134;29;20033;-66
2022/08/06 05:28:23;;;;;;;2.67;1.50;;;15.90;99.90;;;;;;4047963;29;20060;-65
2022/08/06 05:30:24;;;;;;;1.30;1.20;;;15.90;99.90;;;;;;4048318;29;20632;-65
2022/08/06 05:32:24;;;;;;;3.17;1.50;;;16.00;99.90;;;;;;4051856;29;20069;-65
2022/08/06 05:34:25;;;;;;;2.50;1.20;;;16.00;99.90;;;;;;4054144;29;20032;-65
2022/08/06 05:36:26;;;;;;;3.17;1.80;;;16.10;99.90;;;;;;4056542;29;20068;-65
2022/08/06 05:38:27;;;;;;;2.08;1.40;;;16.10;99.90;;;;;;4048252;29;20028;-65
2022/08/06 05:40:33;;;;;;;3.58;1.60;;;16.10;99.90;;;;;;4047469;29;20040;-66
2022/08/06 05:42:34;;;;;;;3.22;1.80;;;16.10;99.90;;;;;;4047261;29;20048;-66
2022/08/06 05:44:34;;;;;;;4.53;1.73;;;16.20;99.90;;;;;;4055163;29;20119;-65
2022/08/06 05:46:40;;;;;;;5.50;1.70;;;16.20;99.90;;;;;;4060445;29;20033;-65
2022/08/06 05:48:50;;;;;;;4.03;1.88;;;16.20;99.90;;;;;;4054092;29;20099;-66
2022/08/06 05:50:57;;;;;;;2.97;1.40;;;16.30;99.90;;;;;;4055127;29;20526;-66
2022/08/06 05:53:04;;;;;;;2.70;1.40;;;16.30;99.90;;;;;;4054182;29;20048;-66
2022/08/06 05:55:15;;;;;;;3.15;1.73;;;16.30;99.90;;;;;;4069270;29;20047;-66
2022/08/06 05:57:29;;;;;;;4.00;1.60;;;16.30;99.90;;;;;;4069942;29;20032;-66
2022/08/06 05:59:34;;;;;;;3.17;1.25;;;16.40;99.90;;;;;;4066542;29;20107;-66
2022/08/06 06:01:36;;;;;;;3.75;1.95;;;16.30;99.90;;;;;;4070025;29;20039;-66
2022/08/06 06:03:39;;;;;;;4.90;2.17;;;16.40;99.90;;;;;;4071054;29;20499;-66
2022/08/06 06:05:41;;;;;;;3.05;1.67;;;16.40;99.90;;;;;;4069575;29;20032;-66
2022/08/06 06:07:42;;;;;;;6.88;2.20;;;16.50;99.90;;;;;;4066342;29;20032;-66
2022/08/06 06:09:44;;;;;;;3.30;1.70;;;16.50;99.90;;;;;;4067973;29;20043;-66
2022/08/06 06:11:45;;;;;;;2.85;1.52;;;16.50;99.90;;;;;;4071328;29;20054;-67
2022/08/06 06:13:46;;;;;;;4.55;1.80;;;16.50;99.90;;;;;;4069347;29;20067;-66
2022/08/06 06:16:12;;;;;;;3.15;1.40;;;16.50;99.90;;;;;;4066004;29;20391;-66
2022/08/06 06:18:20;;;;;;;2.38;1.45;;;16.60;99.90;;;;;;4051621;29;20164;-66
2022/08/06 06:20:34;;;;;;;2.90;1.60;;;16.60;99.90;;;;;;4060467;29;20127;-66
2022/08/06 06:23:04;;;;;;;2.10;1.23;;;16.70;99.90;;;;;;4061090;29;20042;-65
2022/08/06 06:25:10;;;;;;;4.75;1.83;;;16.80;99.90;;;;;;4022646;29;20045;-67
2022/08/06 06:27:24;;;;;;;4.25;1.60;;;16.80;99.90;;;;;;4063477;29;20392;-65
2022/08/06 06:29:49;;;;;;;2.95;1.70;;;17.00;99.90;;;;;;4059053;29;20044;-66
2022/08/06 06:32:06;;;;;;;4.25;1.60;;;17.20;99.90;;;;;;4061192;29;20055;-66
2022/08/06 06:34:30;;;;;;;3.65;1.67;;;17.60;99.90;;;;;;4062040;29;20036;-67
2022/08/06 06:36:33;;;;;;;;;;;18.10;99.90;;;;;;4062972;29;20412;-67
2022/08/06 06:38:36;;;;;;;;;;;18.60;99.90;;;;;;4064195;29;19915;-66
2022/08/06 06:40:51;;;;;;;;;;;19.00;99.90;;;;;;4065771;29;20373;-67
2022/08/06 06:43:12;;;;;;;2.47;1.33;;;19.50;99.90;;;;;;4061589;29;20008;-68
2022/08/06 06:45:33;;;;;;;1.75;1.05;;;20.00;99.90;;;;;;4063159;29;20047;-67
2022/08/06 06:47:55;;;;;;;4.00;1.05;;;20.50;99.90;;;;;;4067067;29;20043;-67
2022/08/06 06:50:07;;;;;;;2.05;1.10;;;21.10;99.90;;;;;;4064161;29;20051;-68
2022/08/06 06:52:14;;;;;;;2.10;0.93;;;21.60;99.90;;;;;;4064371;29;20123;-67
2022/08/06 06:54:26;;;;;;;2.10;1.10;;;22.10;99.90;;;;;;4069666;29;20076;-67
2022/08/06 06:56:31;;;;;;;1.98;1.00;;;22.50;99.90;;;;;;4065851;29;20044;-67
2022/08/06 06:58:40;;;;;;;3.72;1.30;;;22.70;99.90;;;;;;4067071;29;20042;-67
2022/08/06 07:00:42;;;;;;;4.18;1.40;;;23.00;99.00;;;;;;4065942;29;20042;-67
2022/08/06 07:02:48;;;;;;;2.58;1.08;;;23.30;97.50;;;;;;4064236;29;20513;-67
2022/08/06 07:04:49;;;;;;;1.77;0.88;;;23.50;94.30;;;;;;4067305;29;20137;-67
2022/08/06 07:06:54;;;;;;;2.50;0.80;;;23.70;93.70;;;;;;4073425;29;20095;-67
2022/08/06 07:08:56;;;;;;;4.22;1.30;;;23.80;92.90;;;;;;4068328;29;20035;-67
2022/08/06 07:10:58;;;;;;;3.88;0.85;;;23.70;92.40;;;;;;4068256;29;20044;-67
2022/08/06 07:13:00;;;;;;;2.73;0.73;;;23.80;94.00;;;;;;4066733;29;20131;-67
2022/08/06 07:15:06;;;;;;;4.82;1.13;;;24.00;94.90;;;;;;4068611;29;20118;-67
2022/08/06 07:17:09;;;;;;;2.88;1.10;;;24.10;95.70;;;;;;4066427;29;20416;-67
2022/08/06 07:19:10;;;;;;;;;;;24.10;91.90;;;;;;4067005;29;20033;-68
2022/08/06 07:21:14;;;;;;;1.98;0.82;;;24.20;93.10;;;;;;4066234;29;20006;-67
2022/08/06 07:23:16;;;;;;;2.20;1.05;;;24.30;91.90;;;;;;4068795;29;20036;-67
2022/08/06 07:25:17;;;;;;;1.88;0.80;;;24.30;93.20;;;;;;4065819;29;20040;-68
2022/08/06 07:27:19;;;;;;;2.03;0.70;;;24.30;93.70;;;;;;4066113;29;20519;-68
2022/08/06 07:29:20;;;;;;;2.33;0.93;;;24.40;92.50;;;;;;4065945;29;20028;-68
2022/08/06 07:31:25;;;;;;;1.40;0.77;;;24.40;91.50;;;;;;4066284;29;20070;-68
2022/08/06 07:33:27;;;;;;;3.33;0.77;;;24.40;88.00;;;;;;4067282;29;20495;-68
2022/08/06 07:35:29;;;;;;;2.10;0.95;;;24.40;90.80;;;;;;4066046;29;20028;-68
2022/08/06 07:37:31;;;;;;;2.22;0.70;;;24.30;87.50;;;;;;4065677;29;20044;-68
2022/08/06 07:39:36;;;;;;;1.23;0.60;;;24.30;88.10;;;;;;4066342;29;20067;-67
2022/08/06 07:41:37;;;;;;;0.93;0.63;;;24.10;88.40;;;;;;4064607;29;20514;-68
2022/08/06 07:43:43;;;;;;;2.63;0.90;;;24.20;90.20;;;;;;4065626;29;20037;-67
2022/08/06 07:45:46;;;;;;;0.95;0.40;;;24.20;91.40;;;;;;4065426;29;20024;-68
2022/08/06 07:47:48;;;;;;;3.72;0.50;;;24.30;92.40;;;;;;4066850;29;20039;-68
2022/08/06 07:49:54;;;;;;;0.70;0.25;;;24.30;90.90;;;;;;4068793;29;20048;-68
2022/08/06 07:51:56;;;;;;;1.52;0.60;;;24.30;86.70;;;;;;4070488;29;20036;-68
2022/08/06 07:53:57;;;;;;;1.13;0.40;;;24.30;91.70;;;;;;4068363;29;20047;-68
2022/08/06 07:55:59;;;;;;;0.95;0.38;;;24.40;90.20;;;;;;4065069;29;20471;-68
2022/08/06 07:58:01;;;;;;;0.67;0.40;;;24.30;86.80;;;;;;4069288;29;20036;-67
2022/08/06 08:00:02;;;;;;;0.32;0.30;;;24.30;87.70;;;;;;4067579;29;20858;-68
2022/08/06 08:02:04;;;;;;;1.25;0.30;;;24.40;89.30;;;;;;4065323;29;20047;-67
2022/08/06 08:06:28;;;;;;;3.88;0.40;;;24.50;84.50;;;;;;4058614;29;20400;-68
2022/08/06 08:08:29;;;;;;;0.88;0.30;;;24.30;80.60;;;;;;4067370;29;20152;-68
2022/08/06 08:10:30;;;;;;;0.93;0.30;;;24.20;85.30;;;;;;4065294;29;20044;-68
2022/08/06 08:12:33;;;;;;;1.05;0.30;;;24.30;87.80;;;;;;4069438;29;20289;-68
2022/08/06 08:14:34;;;;;;;1.15;0.30;;;24.30;86.50;;;;;;4066842;29;20421;-68
2022/08/06 08:16:36;;;;;;;1.13;0.40;;;24.30;85.70;;;;;;4070577;29;20036;-68
2022/08/06 08:18:38;;;;;;;0.73;0.20;;;24.30;85.80;;;;;;4069334;29;20111;-68
2022/08/06 08:20:41;;;;;;;;;;;24.40;82.80;;;;;;4070906;29;20130;-68
2022/08/06 08:22:42;;;;;;;1.20;0.40;;;24.20;81.90;;;;;;4053350;29;19919;-68
2022/08/06 08:24:44;;;;;;;2.30;0.55;;;24.10;82.50;;;;;;4070453;29;20050;-67
2022/08/06 08:26:45;;;;;;;;;;;24.00;81.70;;;;;;4069179;29;20553;-67
2022/08/06 08:28:46;;;;;;;1.48;0.38;;;23.80;82.30;;;;;;4066912;29;19922;-68
2022/08/06 08:30:46;;;;;;;1.10;0.55;;;23.90;89.10;;;;;;4064361;29;20044;-67
2022/08/06 08:32:47;;;;;;;0.77;0.40;;;23.90;90.00;;;;;;4081940;28;20118;-68
2022/08/06 08:34:47;;;;;;;2.00;0.20;;;23.90;90.10;;;;;;4070755;29;20513;-68
2022/08/06 08:36:48;;;;;;;1.35;0.50;;;23.90;88.00;;;;;;4070627;29;20048;-68
2022/08/06 08:38:49;;;;;;;0.60;0.30;;;24.00;87.00;;;;;;4069365;29;20066;-68
2022/08/06 08:40:51;;;;;;;0.57;0.35;;;24.10;89.10;;;;;;4066023;29;20047;-68
2022/08/06 08:42:55;;;;;;;1.00;0.40;;;24.00;90.40;;;;;;4071221;29;20033;-68
2022/08/06 08:44:58;;;;;;;0.57;0.30;;;24.00;84.10;;;;;;4081512;28;20074;-68
2022/08/06 08:47:00;;;;;;;1.10;0.43;;;24.00;83.80;;;;;;4070771;29;20040;-68
2022/08/06 08:49:03;;;;;;;2.53;0.40;;;24.00;82.70;;;;;;4069796;29;20067;-68
2022/08/06 08:51:07;;;;;;;1.48;0.40;;;23.90;84.80;;;;;;4068185;29;20047;-68
2022/08/06 08:53:14;;;;;;;1.13;0.40;;;23.80;81.00;;;;;;4070099;29;20040;-67
2022/08/06 08:55:16;;;;;;;1.75;0.70;;;23.70;82.40;;;;;;4071916;29;20380;-68
2022/08/06 08:57:18;;;;;;;2.28;0.60;;;23.60;84.30;;;;;;4056829;29;20044;-68
2022/08/06 08:59:19;;;;;;;0.40;0.20;;;23.40;80.30;;;;;;4071772;29;20051;-67
2022/08/06 09:01:20;;;;;;;0.40;0.30;;;23.20;85.00;;;;;;4071695;29;20267;-70
2022/08/06 09:03:22;;;;;;;0.60;0.30;;;23.30;89.80;;;;;;4073484;29;20052;-68
2022/08/06 09:05:23;;;;;;;1.77;0.70;;;23.20;85.70;;;;;;4071006;29;20372;-68
2022/08/06 09:07:24;;;;;;;2.67;0.55;;;23.00;82.90;;;;;;4073492;29;20036;-68
2022/08/06 09:09:27;;;;;;;0.82;0.30;;;22.80;82.60;;;;;;4071883;29;20043;-68
2022/08/06 09:11:27;;;;;;;2.15;0.40;;;22.80;82.30;;;;;;4055529;29;20041;-68
2022/08/06 09:13:29;;;;;;;0.22;0.10;;;22.80;89.90;;;;;;4084199;28;20037;-68
2022/08/06 09:15:29;;;;;;;1.40;0.30;;;23.00;90.00;;;;;;4084925;28;20031;-67
2022/08/06 09:17:31;;;;;;;0.22;0.13;;;23.10;84.50;;;;;;4070958;29;20544;-67
2022/08/06 09:19:32;;;;;;;0.73;0.30;;;23.20;86.10;;;;;;4068545;29;20039;-68
2022/08/06 09:21:34;;;;;;;1.30;0.40;;;23.30;86.80;;;;;;4063632;29;20134;-67
2022/08/06 09:23:37;;;;;;;3.65;0.47;;;23.40;88.60;;;;;;4064040;29;20040;-67
2022/08/06 09:25:41;;;;;;;0.65;0.43;;;23.40;86.20;;;;;;4064036;29;20900;-68
2022/08/06 09:27:42;;;;;;;0.43;0.22;;;23.50;89.00;;;;;;4064576;29;20032;-68
2022/08/06 09:29:54;;;;;;;1.40;0.30;;;23.50;86.20;;;;;;4063760;29;20074;-67
2022/08/06 09:31:55;;;;;;;1.17;0.47;;;23.60;81.80;;;;;;4061362;29;20041;-68
2022/08/06 09:34:04;;;;;;;0.77;0.40;;;23.60;83.00;;;;;;4067220;29;20134;-68
2022/08/06 09:36:10;;;;;;;0.82;0.30;;;23.60;83.40;;;;;;4063757;29;20047;-68
2022/08/06 09:38:12;;;;;;;1.42;0.60;;;23.50;80.00;;;;;;4064707;29;20075;-68
2022/08/06 09:40:19;;;;;;;0.32;0.28;;;23.10;80.70;;;;;;4062379;29;20067;-68
2022/08/06 09:42:40;;;;;;;1.25;0.32;;;23.10;80.50;;;;;;4066611;29;20487;-69
2022/08/06 09:44:41;;;;;;;0.68;0.30;;;23.10;83.70;;;;;;4063960;29;20082;-67
2022/08/06 09:46:44;;;;;;;0.45;0.20;;;23.20;87.30;;;;;;4068542;29;20028;-67
2022/08/06 09:49:12;;;;;;;0.32;0.20;;;23.40;87.60;;;;;;4065233;29;20473;-67
2022/08/06 09:51:22;;;;;;;1.92;0.32;;;23.60;85.10;;;;;;4062415;29;20051;-67
2022/08/06 09:53:24;;;;;;;3.13;0.30;;;23.60;84.60;;;;;;4067805;29;20928;-67
2022/08/06 09:55:32;;;;;;;3.35;0.50;;;23.70;88.60;;;;;;4049647;29;20527;-69
2022/08/06 09:57:45;;;;;;;1.48;0.45;;;23.80;86.60;;;;;;4061485;29;20070;-67
2022/08/06 09:59:46;;;;;;;;;;;23.80;79.40;;;;;;4058277;29;20064;-67
2022/08/06 10:01:49;;;;;;;1.58;0.25;;;23.80;85.70;;;;;;4048043;29;20299;-66
2022/08/06 10:03:51;;;;;;;1.00;0.35;;;23.70;87.00;;;;;;4049306;29;20036;-66
2022/08/06 10:06:07;;;;;;;1.63;0.55;;;23.70;89.90;;;;;;4050954;29;20037;-67
2022/08/06 10:08:16;;;;;;;0.50;0.20;;;23.60;86.40;;;;;;4068146;29;20060;-66
2022/08/06 10:10:17;;;;;;;2.00;0.40;;;23.50;87.40;;;;;;4066805;29;20081;-66
2022/08/06 10:12:22;;;;;;;2.35;0.40;;;23.50;89.50;;;;;;4068915;29;20035;-66
2022/08/06 10:14:33;;;;;;;0.70;0.20;;;23.40;85.80;;;;;;4053649;29;20109;-66
2022/08/06 10:16:34;;;;;;;0.75;0.25;;;23.40;85.80;;;;;;4055061;29;20044;-66
2022/08/06 10:18:38;;;;;;;0.98;0.38;;;23.40;86.80;;;;;;4055689;29;20403;-67
2022/08/06 10:20:59;;;;;;;1.65;0.45;;;23.30;86.60;;;;;;4051280;29;20381;-66
2022/08/06 10:23:00;;;;;;;0.45;0.40;;;23.10;78.50;;;;;;4054404;29;20040;-66
2022/08/06 10:25:03;;;;;;;0.32;0.22;;;23.20;86.40;;;;;;4052103;29;20033;-66
2022/08/06 10:27:07;;;;;;;0.82;0.40;;;23.20;83.70;;;;;;4057828;29;20040;-66
2022/08/06 10:29:08;;;;;;;1.02;0.40;;;23.20;82.80;;;;;;4071357;29;20039;-66
2022/08/06 10:31:13;;;;;;;0.57;0.30;;;23.20;82.10;;;;;;4068535;29;20033;-66
2022/08/06 10:33:14;;;;;;;1.85;0.20;;;23.20;81.30;;;;;;4069673;29;20036;-66
2022/08/06 10:35:21;;;;;;;1.20;0.50;;;23.20;84.40;;;;;;4070982;29;20554;-66
2022/08/06 10:37:22;;;;;;;0.90;0.40;;;23.30;83.20;;;;;;4067053;29;20501;-67
2022/08/06 10:39:26;;;;;;;0.50;0.30;;;23.30;82.30;;;;;;4067432;29;20108;-67
2022/08/06 10:41:28;;;;;;;0.57;0.28;;;23.30;81.20;;;;;;4059324;29;20032;-67
2022/08/06 10:43:29;;;;;;;0.32;0.28;;;23.40;78.10;;;;;;4049939;29;20048;-66
2022/08/06 10:45:30;;;;;;;0.43;0.22;;;23.30;78.10;;;;;;4049919;29;20044;-67
2022/08/06 10:47:32;;;;;;;2.50;0.30;;;23.40;77.10;;;;;;4051537;29;20040;-67
2022/08/06 10:49:33;;;;;;;2.30;0.63;;;23.10;74.70;;;;;;4051263;29;20056;-66
2022/08/06 10:51:36;;;;;;;1.45;0.30;;;23.20;77.80;;;;;;4050555;29;20515;-66
2022/08/06 10:53:44;;;;;;;0.60;0.20;;;23.40;84.60;;;;;;4052873;29;20410;-66
2022/08/06 10:55:46;;;;;;;0.40;0.30;;;23.40;82.90;;;;;;4041344;29;20032;-67